sensor_id;sensor_type;location;lat;lon;timestamp;P1;durP1;ratioP1;P2;durP2;ratioP2
36593;SDS011;22603;47.900;8.146;2024-01-25T00:02:14;6.43;;;1.43;;
36593;SDS011;22603;47.900;8.146;2024-01-25T00:05:01;2.43;;;1.10;;
36593;SDS011;22603;47.900;8.146;2024-01-25T00:07:48;6.83;;;0.90;;
36593;SDS011;22603;47.900;8.146;2024-01-25T00:10:36;2.13;;;1.00;;
36593;SDS011;22603;47.900;8.146;2024-01-25T00:13:24;4.50;;;0.90;;
36593;SDS011;22603;47.900;8.146;2024-01-25T00:16:10;4.23;;;1.10;;
36593;SDS011;22603;47.900;8.146;2024-01-25T00:18:58;5.20;;;1.23;;
36593;SDS011;22603;47.900;8.146;2024-01-25T00:21:45;2.83;;;1.00;;
36593;SDS011;22603;47.900;8.146;2024-01-25T00:24:32;7.50;;;1.20;;
36593;SDS011;22603;47.900;8.146;2024-01-25T00:27:19;4.07;;;1.20;;
36593;SDS011;22603;47.900;8.146;2024-01-25T00:30:07;6.40;;;0.97;;
36593;SDS011;22603;47.900;8.146;2024-01-25T00:32:55;4.40;;;1.37;;
36593;SDS011;22603;47.900;8.146;2024-01-25T00:35:42;1.97;;;1.00;;
36593;SDS011;22603;47.900;8.146;2024-01-25T00:38:30;5.33;;;0.90;;
36593;SDS011;22603;47.900;8.146;2024-01-25T00:41:17;4.90;;;1.43;;
36593;SDS011;22603;47.900;8.146;2024-01-25T00:44:05;4.77;;;1.07;;
36593;SDS011;22603;47.900;8.146;2024-01-25T00:46:54;8.63;;;1.47;;
36593;SDS011;22603;47.900;8.146;2024-01-25T00:49:43;5.47;;;1.00;;
36593;SDS011;22603;47.900;8.146;2024-01-25T00:52:31;4.47;;;1.20;;
36593;SDS011;22603;47.900;8.146;2024-01-25T00:55:18;5.47;;;0.90;;
36593;SDS011;22603;47.900;8.146;2024-01-25T00:58:06;3.70;;;0.80;;
36593;SDS011;22603;47.900;8.146;2024-01-25T01:00:53;7.43;;;1.07;;
36593;SDS011;22603;47.900;8.146;2024-01-25T01:03:42;3.27;;;0.83;;
36593;SDS011;22603;47.900;8.146;2024-01-25T01:06:29;7.03;;;1.20;;
36593;SDS011;22603;47.900;8.146;2024-01-25T01:09:17;2.47;;;1.00;;
36593;SDS011;22603;47.900;8.146;2024-01-25T01:12:04;3.83;;;1.20;;
36593;SDS011;22603;47.900;8.146;2024-01-25T01:14:52;8.20;;;1.37;;
36593;SDS011;22603;47.900;8.146;2024-01-25T01:17:38;2.77;;;1.17;;
36593;SDS011;22603;47.900;8.146;2024-01-25T01:20:26;9.93;;;1.20;;
36593;SDS011;22603;47.900;8.146;2024-01-25T01:23:13;3.70;;;0.90;;
36593;SDS011;22603;47.900;8.146;2024-01-25T01:26:00;5.40;;;1.43;;
36593;SDS011;22603;47.900;8.146;2024-01-25T01:28:47;9.23;;;1.20;;
36593;SDS011;22603;47.900;8.146;2024-01-25T01:31:34;13.93;;;1.30;;
36593;SDS011;22603;47.900;8.146;2024-01-25T01:34:21;5.57;;;1.43;;
36593;SDS011;22603;47.900;8.146;2024-01-25T01:37:09;4.27;;;1.20;;
36593;SDS011;22603;47.900;8.146;2024-01-25T01:39:56;3.40;;;1.03;;
36593;SDS011;22603;47.900;8.146;2024-01-25T01:42:46;3.80;;;1.00;;
36593;SDS011;22603;47.900;8.146;2024-01-25T01:45:32;8.23;;;1.53;;
36593;SDS011;22603;47.900;8.146;2024-01-25T01:48:19;3.50;;;1.00;;
36593;SDS011;22603;47.900;8.146;2024-01-25T01:51:07;5.50;;;1.17;;
36593;SDS011;22603;47.900;8.146;2024-01-25T01:53:57;8.20;;;1.70;;
36593;SDS011;22603;47.900;8.146;2024-01-25T01:56:44;8.27;;;1.10;;
36593;SDS011;22603;47.900;8.146;2024-01-25T01:59:31;2.10;;;0.90;;
36593;SDS011;22603;47.900;8.146;2024-01-25T02:02:18;6.57;;;1.00;;
36593;SDS011;22603;47.900;8.146;2024-01-25T02:05:05;2.93;;;0.90;;
36593;SDS011;22603;47.900;8.146;2024-01-25T02:07:52;5.00;;;1.03;;
36593;SDS011;22603;47.900;8.146;2024-01-25T02:10:40;6.70;;;1.23;;
36593;SDS011;22603;47.900;8.146;2024-01-25T02:13:28;2.07;;;0.87;;
36593;SDS011;22603;47.900;8.146;2024-01-25T02:16:15;1.70;;;0.77;;
36593;SDS011;22603;47.900;8.146;2024-01-25T02:19:03;9.93;;;1.33;;
36593;SDS011;22603;47.900;8.146;2024-01-25T02:21:50;5.80;;;1.17;;
36593;SDS011;22603;47.900;8.146;2024-01-25T02:24:41;0.90;;;0.70;;
36593;SDS011;22603;47.900;8.146;2024-01-25T02:27:28;2.37;;;0.73;;
36593;SDS011;22603;47.900;8.146;2024-01-25T02:30:15;4.93;;;0.80;;
36593;SDS011;22603;47.900;8.146;2024-01-25T02:33:02;0.70;;;0.70;;
36593;SDS011;22603;47.900;8.146;2024-01-25T02:35:49;1.30;;;0.80;;
36593;SDS011;22603;47.900;8.146;2024-01-25T02:38:36;1.33;;;0.40;;
36593;SDS011;22603;47.900;8.146;2024-01-25T02:41:24;1.03;;;0.67;;
36593;SDS011;22603;47.900;8.146;2024-01-25T02:44:13;3.40;;;0.80;;
36593;SDS011;22603;47.900;8.146;2024-01-25T02:47:00;2.83;;;0.80;;
36593;SDS011;22603;47.900;8.146;2024-01-25T02:49:47;1.83;;;0.70;;
36593;SDS011;22603;47.900;8.146;2024-01-25T02:52:35;3.03;;;0.73;;
36593;SDS011;22603;47.900;8.146;2024-01-25T02:55:21;1.80;;;0.77;;
36593;SDS011;22603;47.900;8.146;2024-01-25T02:58:09;0.47;;;0.47;;
36593;SDS011;22603;47.900;8.146;2024-01-25T03:00:56;0.50;;;0.50;;
36593;SDS011;22603;47.900;8.146;2024-01-25T03:03:43;1.03;;;0.60;;
36593;SDS011;22603;47.900;8.146;2024-01-25T03:06:30;0.73;;;0.60;;
36593;SDS011;22603;47.900;8.146;2024-01-25T03:09:17;1.10;;;0.57;;
36593;SDS011;22603;47.900;8.146;2024-01-25T03:12:06;0.50;;;0.50;;
36593;SDS011;22603;47.900;8.146;2024-01-25T03:14:54;0.93;;;0.67;;
36593;SDS011;22603;47.900;8.146;2024-01-25T03:17:41;1.27;;;0.53;;
36593;SDS011;22603;47.900;8.146;2024-01-25T03:20:28;5.97;;;0.70;;
36593;SDS011;22603;47.900;8.146;2024-01-25T03:23:17;1.50;;;0.80;;
36593;SDS011;22603;47.900;8.146;2024-01-25T03:26:07;2.53;;;0.70;;
36593;SDS011;22603;47.900;8.146;2024-01-25T03:28:53;3.60;;;0.73;;
36593;SDS011;22603;47.900;8.146;2024-01-25T03:31:42;3.33;;;0.57;;
36593;SDS011;22603;47.900;8.146;2024-01-25T03:34:28;2.83;;;0.80;;
36593;SDS011;22603;47.900;8.146;2024-01-25T03:37:15;1.10;;;0.50;;
36593;SDS011;22603;47.900;8.146;2024-01-25T03:40:03;4.03;;;0.50;;
36593;SDS011;22603;47.900;8.146;2024-01-25T03:42:51;1.27;;;0.53;;
36593;SDS011;22603;47.900;8.146;2024-01-25T03:45:57;0.60;;;0.50;;
36593;SDS011;22603;47.900;8.146;2024-01-25T03:48:45;0.73;;;0.50;;
36593;SDS011;22603;47.900;8.146;2024-01-25T03:51:32;0.47;;;0.47;;
36593;SDS011;22603;47.900;8.146;2024-01-25T03:54:18;0.77;;;0.50;;
36593;SDS011;22603;47.900;8.146;2024-01-25T03:57:05;0.40;;;0.40;;
36593;SDS011;22603;47.900;8.146;2024-01-25T03:59:52;1.17;;;0.50;;
36593;SDS011;22603;47.900;8.146;2024-01-25T04:02:39;0.70;;;0.50;;
36593;SDS011;22603;47.900;8.146;2024-01-25T04:05:27;1.77;;;0.57;;
36593;SDS011;22603;47.900;8.146;2024-01-25T04:08:14;0.40;;;0.40;;
36593;SDS011;22603;47.900;8.146;2024-01-25T04:11:01;1.70;;;0.67;;
36593;SDS011;22603;47.900;8.146;2024-01-25T04:13:49;1.13;;;0.77;;
36593;SDS011;22603;47.900;8.146;2024-01-25T04:16:35;2.53;;;0.40;;
36593;SDS011;22603;47.900;8.146;2024-01-25T04:19:22;0.83;;;0.60;;
36593;SDS011;22603;47.900;8.146;2024-01-25T04:22:10;0.40;;;0.40;;
36593;SDS011;22603;47.900;8.146;2024-01-25T04:24:57;0.40;;;0.40;;
36593;SDS011;22603;47.900;8.146;2024-01-25T04:27:44;0.40;;;0.40;;
36593;SDS011;22603;47.900;8.146;2024-01-25T04:30:31;0.93;;;0.40;;
36593;SDS011;22603;47.900;8.146;2024-01-25T04:33:18;0.60;;;0.40;;
36593;SDS011;22603;47.900;8.146;2024-01-25T04:36:12;0.30;;;0.30;;
36593;SDS011;22603;47.900;8.146;2024-01-25T04:39:01;0.40;;;0.40;;
36593;SDS011;22603;47.900;8.146;2024-01-25T04:41:48;0.40;;;0.40;;
36593;SDS011;22603;47.900;8.146;2024-01-25T04:44:35;0.30;;;0.30;;
36593;SDS011;22603;47.900;8.146;2024-01-25T04:47:22;0.40;;;0.40;;
36593;SDS011;22603;47.900;8.146;2024-01-25T04:50:09;0.30;;;0.30;;
36593;SDS011;22603;47.900;8.146;2024-01-25T04:52:56;0.40;;;0.40;;
36593;SDS011;22603;47.900;8.146;2024-01-25T04:55:46;3.97;;;0.40;;
36593;SDS011;22603;47.900;8.146;2024-01-25T04:58:33;0.30;;;0.30;;
36593;SDS011;22603;47.900;8.146;2024-01-25T05:01:23;0.50;;;0.50;;
36593;SDS011;22603;47.900;8.146;2024-01-25T05:04:12;0.50;;;0.50;;
36593;SDS011;22603;47.900;8.146;2024-01-25T05:06:59;0.30;;;0.30;;
36593;SDS011;22603;47.900;8.146;2024-01-25T05:09:46;0.40;;;0.40;;
36593;SDS011;22603;47.900;8.146;2024-01-25T05:12:34;1.90;;;0.40;;
36593;SDS011;22603;47.900;8.146;2024-01-25T05:15:21;1.33;;;0.70;;
36593;SDS011;22603;47.900;8.146;2024-01-25T05:18:07;1.50;;;0.60;;
36593;SDS011;22603;47.900;8.146;2024-01-25T05:20:54;1.13;;;0.63;;
36593;SDS011;22603;47.900;8.146;2024-01-25T05:23:44;0.60;;;0.40;;
36593;SDS011;22603;47.900;8.146;2024-01-25T05:26:31;0.43;;;0.40;;
36593;SDS011;22603;47.900;8.146;2024-01-25T05:29:19;0.30;;;0.30;;
36593;SDS011;22603;47.900;8.146;2024-01-25T05:32:06;0.30;;;0.30;;
36593;SDS011;22603;47.900;8.146;2024-01-25T05:34:53;0.37;;;0.37;;
36593;SDS011;22603;47.900;8.146;2024-01-25T05:37:40;1.40;;;0.40;;
36593;SDS011;22603;47.900;8.146;2024-01-25T05:40:27;0.40;;;0.40;;
36593;SDS011;22603;47.900;8.146;2024-01-25T05:43:14;0.40;;;0.40;;
36593;SDS011;22603;47.900;8.146;2024-01-25T05:46:02;0.30;;;0.30;;
36593;SDS011;22603;47.900;8.146;2024-01-25T05:48:50;0.40;;;0.40;;
36593;SDS011;22603;47.900;8.146;2024-01-25T05:51:37;0.33;;;0.33;;
36593;SDS011;22603;47.900;8.146;2024-01-25T05:54:25;0.30;;;0.30;;
36593;SDS011;22603;47.900;8.146;2024-01-25T05:57:11;0.30;;;0.30;;
36593;SDS011;22603;47.900;8.146;2024-01-25T05:59:58;0.40;;;0.30;;
36593;SDS011;22603;47.900;8.146;2024-01-25T06:02:46;0.87;;;0.50;;
36593;SDS011;22603;47.900;8.146;2024-01-25T06:05:33;0.20;;;0.20;;
36593;SDS011;22603;47.900;8.146;2024-01-25T06:08:20;0.30;;;0.30;;
36593;SDS011;22603;47.900;8.146;2024-01-25T06:11:07;0.30;;;0.30;;
36593;SDS011;22603;47.900;8.146;2024-01-25T06:13:54;0.30;;;0.30;;
36593;SDS011;22603;47.900;8.146;2024-01-25T06:16:42;0.30;;;0.30;;
36593;SDS011;22603;47.900;8.146;2024-01-25T06:19:30;0.40;;;0.40;;
36593;SDS011;22603;47.900;8.146;2024-01-25T06:22:18;0.27;;;0.27;;
36593;SDS011;22603;47.900;8.146;2024-01-25T06:25:05;0.40;;;0.40;;
36593;SDS011;22603;47.900;8.146;2024-01-25T06:27:54;0.30;;;0.30;;
36593;SDS011;22603;47.900;8.146;2024-01-25T06:30:42;0.30;;;0.30;;
36593;SDS011;22603;47.900;8.146;2024-01-25T06:33:28;0.40;;;0.40;;
36593;SDS011;22603;47.900;8.146;2024-01-25T06:36:17;0.30;;;0.30;;
36593;SDS011;22603;47.900;8.146;2024-01-25T06:39:04;1.03;;;0.70;;
36593;SDS011;22603;47.900;8.146;2024-01-25T06:41:51;0.30;;;0.30;;
36593;SDS011;22603;47.900;8.146;2024-01-25T06:44:38;0.50;;;0.50;;
36593;SDS011;22603;47.900;8.146;2024-01-25T06:47:25;0.30;;;0.30;;
36593;SDS011;22603;47.900;8.146;2024-01-25T06:50:11;0.50;;;0.50;;
36593;SDS011;22603;47.900;8.146;2024-01-25T06:53:00;9.80;;;0.60;;
36593;SDS011;22603;47.900;8.146;2024-01-25T06:55:47;0.30;;;0.30;;
36593;SDS011;22603;47.900;8.146;2024-01-25T06:58:34;1.10;;;0.83;;
36593;SDS011;22603;47.900;8.146;2024-01-25T07:01:22;0.40;;;0.40;;
36593;SDS011;22603;47.900;8.146;2024-01-25T07:04:10;0.53;;;0.40;;
36593;SDS011;22603;47.900;8.146;2024-01-25T07:06:57;0.80;;;0.60;;
36593;SDS011;22603;47.900;8.146;2024-01-25T07:09:46;1.13;;;0.60;;
36593;SDS011;22603;47.900;8.146;2024-01-25T07:12:33;0.57;;;0.57;;
36593;SDS011;22603;47.900;8.146;2024-01-25T07:15:19;0.87;;;0.53;;
36593;SDS011;22603;47.900;8.146;2024-01-25T07:18:07;1.23;;;0.60;;
36593;SDS011;22603;47.900;8.146;2024-01-25T07:20:54;1.70;;;0.47;;
36593;SDS011;22603;47.900;8.146;2024-01-25T07:23:40;0.47;;;0.47;;
36593;SDS011;22603;47.900;8.146;2024-01-25T07:26:29;1.23;;;0.70;;
36593;SDS011;22603;47.900;8.146;2024-01-25T07:29:16;0.47;;;0.47;;
36593;SDS011;22603;47.900;8.146;2024-01-25T07:32:02;0.50;;;0.50;;
36593;SDS011;22603;47.900;8.146;2024-01-25T07:34:50;2.07;;;0.57;;
36593;SDS011;22603;47.900;8.146;2024-01-25T07:37:37;0.37;;;0.37;;
36593;SDS011;22603;47.900;8.146;2024-01-25T07:40:24;0.40;;;0.40;;
36593;SDS011;22603;47.900;8.146;2024-01-25T07:43:12;0.30;;;0.30;;
36593;SDS011;22603;47.900;8.146;2024-01-25T07:45:59;0.40;;;0.40;;
36593;SDS011;22603;47.900;8.146;2024-01-25T07:48:46;2.63;;;0.60;;
36593;SDS011;22603;47.900;8.146;2024-01-25T07:51:34;0.40;;;0.40;;
36593;SDS011;22603;47.900;8.146;2024-01-25T07:54:21;0.40;;;0.40;;
36593;SDS011;22603;47.900;8.146;2024-01-25T07:57:07;3.03;;;0.50;;
36593;SDS011;22603;47.900;8.146;2024-01-25T07:59:57;0.40;;;0.40;;
36593;SDS011;22603;47.900;8.146;2024-01-25T08:02:52;0.40;;;0.40;;
36593;SDS011;22603;47.900;8.146;2024-01-25T08:05:39;0.40;;;0.40;;
36593;SDS011;22603;47.900;8.146;2024-01-25T08:08:35;0.40;;;0.40;;
36593;SDS011;22603;47.900;8.146;2024-01-25T08:11:23;2.03;;;0.50;;
36593;SDS011;22603;47.900;8.146;2024-01-25T08:14:11;0.40;;;0.40;;
36593;SDS011;22603;47.900;8.146;2024-01-25T08:16:59;1.63;;;0.67;;
36593;SDS011;22603;47.900;8.146;2024-01-25T08:19:46;0.57;;;0.40;;
36593;SDS011;22603;47.900;8.146;2024-01-25T08:22:36;0.30;;;0.30;;
36593;SDS011;22603;47.900;8.146;2024-01-25T08:25:23;0.40;;;0.40;;
36593;SDS011;22603;47.900;8.146;2024-01-25T08:28:12;0.50;;;0.50;;
36593;SDS011;22603;47.900;8.146;2024-01-25T08:30:58;0.77;;;0.53;;
36593;SDS011;22603;47.900;8.146;2024-01-25T08:33:47;1.80;;;0.70;;
36593;SDS011;22603;47.900;8.146;2024-01-25T08:36:34;2.53;;;1.10;;
36593;SDS011;22603;47.900;8.146;2024-01-25T08:39:20;1.40;;;0.60;;
36593;SDS011;22603;47.900;8.146;2024-01-25T08:42:07;0.60;;;0.50;;
36593;SDS011;22603;47.900;8.146;2024-01-25T08:44:54;0.43;;;0.43;;
36593;SDS011;22603;47.900;8.146;2024-01-25T08:47:40;0.70;;;0.60;;
36593;SDS011;22603;47.900;8.146;2024-01-25T08:50:29;1.57;;;0.60;;
36593;SDS011;22603;47.900;8.146;2024-01-25T08:53:16;1.13;;;0.40;;
36593;SDS011;22603;47.900;8.146;2024-01-25T08:56:03;0.70;;;0.50;;
36593;SDS011;22603;47.900;8.146;2024-01-25T08:58:50;1.07;;;0.73;;
36593;SDS011;22603;47.900;8.146;2024-01-25T09:01:37;0.40;;;0.40;;
36593;SDS011;22603;47.900;8.146;2024-01-25T09:04:24;0.60;;;0.40;;
36593;SDS011;22603;47.900;8.146;2024-01-25T09:07:13;0.40;;;0.40;;
36593;SDS011;22603;47.900;8.146;2024-01-25T09:10:01;0.60;;;0.50;;
36593;SDS011;22603;47.900;8.146;2024-01-25T09:12:50;0.70;;;0.50;;
36593;SDS011;22603;47.900;8.146;2024-01-25T09:15:37;3.63;;;0.70;;
36593;SDS011;22603;47.900;8.146;2024-01-25T09:18:24;0.93;;;0.60;;
36593;SDS011;22603;47.900;8.146;2024-01-25T09:21:11;0.40;;;0.40;;
36593;SDS011;22603;47.900;8.146;2024-01-25T09:23:59;39.70;;;2.23;;
36593;SDS011;22603;47.900;8.146;2024-01-25T09:26:46;33.97;;;1.70;;
36593;SDS011;22603;47.900;8.146;2024-01-25T09:29:33;5.30;;;0.40;;
36593;SDS011;22603;47.900;8.146;2024-01-25T09:32:23;5.47;;;0.50;;
36593;SDS011;22603;47.900;8.146;2024-01-25T09:35:10;1.70;;;0.30;;
36593;SDS011;22603;47.900;8.146;2024-01-25T09:37:57;0.30;;;0.30;;
36593;SDS011;22603;47.900;8.146;2024-01-25T09:40:45;1.03;;;0.30;;
36593;SDS011;22603;47.900;8.146;2024-01-25T09:43:35;0.40;;;0.37;;
36593;SDS011;22603;47.900;8.146;2024-01-25T09:46:22;0.30;;;0.30;;
36593;SDS011;22603;47.900;8.146;2024-01-25T09:49:10;0.33;;;0.33;;
36593;SDS011;22603;47.900;8.146;2024-01-25T09:51:57;0.20;;;0.20;;
36593;SDS011;22603;47.900;8.146;2024-01-25T09:54:49;0.30;;;0.30;;
36593;SDS011;22603;47.900;8.146;2024-01-25T09:57:37;0.30;;;0.30;;
36593;SDS011;22603;47.900;8.146;2024-01-25T10:00:26;0.63;;;0.50;;
36593;SDS011;22603;47.900;8.146;2024-01-25T10:03:17;0.40;;;0.40;;
36593;SDS011;22603;47.900;8.146;2024-01-25T10:06:06;1.57;;;0.70;;
36593;SDS011;22603;47.900;8.146;2024-01-25T10:08:54;0.83;;;0.60;;
36593;SDS011;22603;47.900;8.146;2024-01-25T10:11:44;1.07;;;0.70;;
36593;SDS011;22603;47.900;8.146;2024-01-25T10:14:44;0.80;;;0.50;;
36593;SDS011;22603;47.900;8.146;2024-01-25T10:17:32;9.17;;;1.27;;
36593;SDS011;22603;47.900;8.146;2024-01-25T10:20:42;0.37;;;0.37;;
36593;SDS011;22603;47.900;8.146;2024-01-25T10:23:29;0.40;;;0.40;;
36593;SDS011;22603;47.900;8.146;2024-01-25T10:26:16;0.47;;;0.47;;
36593;SDS011;22603;47.900;8.146;2024-01-25T10:29:03;0.30;;;0.30;;
36593;SDS011;22603;47.900;8.146;2024-01-25T10:31:52;0.53;;;0.40;;
36593;SDS011;22603;47.900;8.146;2024-01-25T10:34:41;10.37;;;0.80;;
36593;SDS011;22603;47.900;8.146;2024-01-25T10:37:30;0.30;;;0.30;;
36593;SDS011;22603;47.900;8.146;2024-01-25T10:40:18;1.03;;;0.47;;
36593;SDS011;22603;47.900;8.146;2024-01-25T10:43:05;0.40;;;0.40;;
36593;SDS011;22603;47.900;8.146;2024-01-25T10:45:52;0.30;;;0.30;;
36593;SDS011;22603;47.900;8.146;2024-01-25T10:48:45;0.30;;;0.30;;
36593;SDS011;22603;47.900;8.146;2024-01-25T10:51:33;0.23;;;0.23;;
36593;SDS011;22603;47.900;8.146;2024-01-25T10:54:21;0.83;;;0.47;;
36593;SDS011;22603;47.900;8.146;2024-01-25T10:57:08;0.30;;;0.30;;
36593;SDS011;22603;47.900;8.146;2024-01-25T10:59:56;11.23;;;1.10;;
36593;SDS011;22603;47.900;8.146;2024-01-25T11:02:44;6.43;;;0.80;;
36593;SDS011;22603;47.900;8.146;2024-01-25T11:05:36;0.30;;;0.30;;
36593;SDS011;22603;47.900;8.146;2024-01-25T11:08:25;0.80;;;0.43;;
36593;SDS011;22603;47.900;8.146;2024-01-25T11:11:12;0.30;;;0.30;;
36593;SDS011;22603;47.900;8.146;2024-01-25T11:14:04;0.83;;;0.40;;
36593;SDS011;22603;47.900;8.146;2024-01-25T11:16:57;1.13;;;0.50;;
36593;SDS011;22603;47.900;8.146;2024-01-25T11:19:44;0.30;;;0.30;;
36593;SDS011;22603;47.900;8.146;2024-01-25T11:22:35;0.30;;;0.30;;
36593;SDS011;22603;47.900;8.146;2024-01-25T11:25:23;0.60;;;0.50;;
36593;SDS011;22603;47.900;8.146;2024-01-25T11:28:13;0.60;;;0.60;;
36593;SDS011;22603;47.900;8.146;2024-01-25T11:31:02;1.77;;;0.97;;
36593;SDS011;22603;47.900;8.146;2024-01-25T11:33:50;1.17;;;0.87;;
36593;SDS011;22603;47.900;8.146;2024-01-25T11:36:38;0.83;;;0.60;;
36593;SDS011;22603;47.900;8.146;2024-01-25T11:39:26;0.60;;;0.60;;
36593;SDS011;22603;47.900;8.146;2024-01-25T11:42:13;0.70;;;0.60;;
36593;SDS011;22603;47.900;8.146;2024-01-25T11:45:00;0.73;;;0.63;;
36593;SDS011;22603;47.900;8.146;2024-01-25T11:47:47;2.00;;;0.77;;
36593;SDS011;22603;47.900;8.146;2024-01-25T11:50:34;0.40;;;0.40;;
36593;SDS011;22603;47.900;8.146;2024-01-25T11:53:21;0.97;;;0.43;;
36593;SDS011;22603;47.900;8.146;2024-01-25T11:56:10;0.50;;;0.50;;
36593;SDS011;22603;47.900;8.146;2024-01-25T11:58:58;0.93;;;0.83;;
36593;SDS011;22603;47.900;8.146;2024-01-25T12:01:46;3.80;;;0.93;;
36593;SDS011;22603;47.900;8.146;2024-01-25T12:04:34;1.13;;;0.80;;
36593;SDS011;22603;47.900;8.146;2024-01-25T12:07:22;1.33;;;0.80;;
36593;SDS011;22603;47.900;8.146;2024-01-25T12:10:10;1.40;;;1.20;;
36593;SDS011;22603;47.900;8.146;2024-01-25T12:13:04;1.33;;;0.80;;
36593;SDS011;22603;47.900;8.146;2024-01-25T12:15:53;30.80;;;2.13;;
36593;SDS011;22603;47.900;8.146;2024-01-25T12:18:41;44.17;;;2.40;;
36593;SDS011;22603;47.900;8.146;2024-01-25T12:21:32;1.03;;;0.80;;
36593;SDS011;22603;47.900;8.146;2024-01-25T12:24:21;3.50;;;1.00;;
36593;SDS011;22603;47.900;8.146;2024-01-25T12:27:08;2.43;;;0.83;;
36593;SDS011;22603;47.900;8.146;2024-01-25T12:30:01;5.30;;;1.27;;
36593;SDS011;22603;47.900;8.146;2024-01-25T12:32:49;1.97;;;0.90;;
36593;SDS011;22603;47.900;8.146;2024-01-25T12:35:37;0.80;;;0.80;;
36593;SDS011;22603;47.900;8.146;2024-01-25T12:38:24;5.90;;;1.33;;
36593;SDS011;22603;47.900;8.146;2024-01-25T12:41:12;20.00;;;2.07;;
36593;SDS011;22603;47.900;8.146;2024-01-25T12:43:59;3.23;;;1.20;;
36593;SDS011;22603;47.900;8.146;2024-01-25T12:46:47;2.70;;;1.33;;
36593;SDS011;22603;47.900;8.146;2024-01-25T12:49:34;2.87;;;1.40;;
36593;SDS011;22603;47.900;8.146;2024-01-25T12:52:21;1.60;;;1.27;;
36593;SDS011;22603;47.900;8.146;2024-01-25T12:55:07;4.00;;;1.40;;
36593;SDS011;22603;47.900;8.146;2024-01-25T12:57:57;4.20;;;1.40;;
36593;SDS011;22603;47.900;8.146;2024-01-25T13:00:44;2.20;;;1.20;;
36593;SDS011;22603;47.900;8.146;2024-01-25T13:03:33;2.17;;;1.33;;
36593;SDS011;22603;47.900;8.146;2024-01-25T13:06:22;2.93;;;1.23;;
36593;SDS011;22603;47.900;8.146;2024-01-25T13:09:09;5.23;;;1.27;;
36593;SDS011;22603;47.900;8.146;2024-01-25T13:11:55;2.93;;;1.27;;
36593;SDS011;22603;47.900;8.146;2024-01-25T13:14:42;3.20;;;1.40;;
36593;SDS011;22603;47.900;8.146;2024-01-25T13:17:29;2.67;;;1.23;;
36593;SDS011;22603;47.900;8.146;2024-01-25T13:20:17;2.77;;;1.73;;
36593;SDS011;22603;47.900;8.146;2024-01-25T13:23:04;2.73;;;1.20;;
36593;SDS011;22603;47.900;8.146;2024-01-25T13:25:51;2.63;;;1.30;;
36593;SDS011;22603;47.900;8.146;2024-01-25T13:28:38;1.47;;;1.23;;
36593;SDS011;22603;47.900;8.146;2024-01-25T13:31:25;2.67;;;1.27;;
36593;SDS011;22603;47.900;8.146;2024-01-25T13:34:11;0.87;;;0.80;;
36593;SDS011;22603;47.900;8.146;2024-01-25T13:37:00;1.50;;;1.00;;
36593;SDS011;22603;47.900;8.146;2024-01-25T13:39:47;1.97;;;1.13;;
36593;SDS011;22603;47.900;8.146;2024-01-25T13:42:34;1.97;;;1.03;;
36593;SDS011;22603;47.900;8.146;2024-01-25T13:45:20;2.40;;;1.00;;
36593;SDS011;22603;47.900;8.146;2024-01-25T13:48:07;1.33;;;0.83;;
36593;SDS011;22603;47.900;8.146;2024-01-25T13:50:54;0.60;;;0.60;;
36593;SDS011;22603;47.900;8.146;2024-01-25T13:53:43;19.07;;;2.00;;
36593;SDS011;22603;47.900;8.146;2024-01-25T13:56:29;39.27;;;3.33;;
36593;SDS011;22603;47.900;8.146;2024-01-25T13:59:16;105.63;;;4.53;;
36593;SDS011;22603;47.900;8.146;2024-01-25T14:02:03;19.70;;;3.03;;
36593;SDS011;22603;47.900;8.146;2024-01-25T14:04:50;2.07;;;1.07;;
36593;SDS011;22603;47.900;8.146;2024-01-25T14:07:37;1.97;;;0.70;;
36593;SDS011;22603;47.900;8.146;2024-01-25T14:10:26;1.10;;;0.63;;
36593;SDS011;22603;47.900;8.146;2024-01-25T14:13:15;1.80;;;0.90;;
36593;SDS011;22603;47.900;8.146;2024-01-25T14:16:02;1.97;;;0.67;;
36593;SDS011;22603;47.900;8.146;2024-01-25T14:18:49;0.93;;;0.60;;
36593;SDS011;22603;47.900;8.146;2024-01-25T14:21:37;0.87;;;0.70;;
36593;SDS011;22603;47.900;8.146;2024-01-25T14:24:24;3.03;;;0.90;;
36593;SDS011;22603;47.900;8.146;2024-01-25T14:27:12;2.07;;;0.97;;
36593;SDS011;22603;47.900;8.146;2024-01-25T14:29:59;1.23;;;0.60;;
36593;SDS011;22603;47.900;8.146;2024-01-25T14:32:46;0.90;;;0.60;;
36593;SDS011;22603;47.900;8.146;2024-01-25T14:35:33;8.33;;;1.13;;
36593;SDS011;22603;47.900;8.146;2024-01-25T14:38:20;29.07;;;2.80;;
36593;SDS011;22603;47.900;8.146;2024-01-25T14:41:08;12.73;;;1.23;;
36593;SDS011;22603;47.900;8.146;2024-01-25T14:43:57;1.53;;;0.67;;
36593;SDS011;22603;47.900;8.146;2024-01-25T14:46:43;1.17;;;0.60;;
36593;SDS011;22603;47.900;8.146;2024-01-25T14:49:30;42.10;;;3.20;;
36593;SDS011;22603;47.900;8.146;2024-01-25T14:52:17;87.27;;;5.27;;
36593;SDS011;22603;47.900;8.146;2024-01-25T14:55:04;16.33;;;1.40;;
36593;SDS011;22603;47.900;8.146;2024-01-25T14:57:51;1.73;;;0.67;;
36593;SDS011;22603;47.900;8.146;2024-01-25T15:00:39;9.77;;;0.97;;
36593;SDS011;22603;47.900;8.146;2024-01-25T15:03:26;5.30;;;1.30;;
36593;SDS011;22603;47.900;8.146;2024-01-25T15:06:13;1.30;;;0.70;;
36593;SDS011;22603;47.900;8.146;2024-01-25T15:09:01;0.50;;;0.50;;
36593;SDS011;22603;47.900;8.146;2024-01-25T15:11:48;1.13;;;0.50;;
36593;SDS011;22603;47.900;8.146;2024-01-25T15:14:35;3.60;;;0.83;;
36593;SDS011;22603;47.900;8.146;2024-01-25T15:17:23;0.67;;;0.57;;
36593;SDS011;22603;47.900;8.146;2024-01-25T15:20:10;1.23;;;0.70;;
36593;SDS011;22603;47.900;8.146;2024-01-25T15:22:57;1.00;;;0.60;;
36593;SDS011;22603;47.900;8.146;2024-01-25T15:25:45;2.27;;;0.90;;
36593;SDS011;22603;47.900;8.146;2024-01-25T15:28:32;1.43;;;0.80;;
36593;SDS011;22603;47.900;8.146;2024-01-25T15:31:19;1.03;;;0.63;;
36593;SDS011;22603;47.900;8.146;2024-01-25T15:34:08;1.27;;;0.70;;
36593;SDS011;22603;47.900;8.146;2024-01-25T15:36:55;0.93;;;0.70;;
36593;SDS011;22603;47.900;8.146;2024-01-25T15:39:42;1.53;;;0.73;;
36593;SDS011;22603;47.900;8.146;2024-01-25T15:42:30;36.50;;;2.97;;
36593;SDS011;22603;47.900;8.146;2024-01-25T15:45:17;15.23;;;1.53;;
36593;SDS011;22603;47.900;8.146;2024-01-25T15:48:04;11.23;;;1.43;;
36593;SDS011;22603;47.900;8.146;2024-01-25T15:50:53;13.50;;;1.37;;
36593;SDS011;22603;47.900;8.146;2024-01-25T15:53:40;0.50;;;0.50;;
36593;SDS011;22603;47.900;8.146;2024-01-25T15:56:26;1.70;;;0.70;;
36593;SDS011;22603;47.900;8.146;2024-01-25T15:59:14;0.40;;;0.40;;
36593;SDS011;22603;47.900;8.146;2024-01-25T16:02:01;0.70;;;0.50;;
36593;SDS011;22603;47.900;8.146;2024-01-25T16:04:48;80.97;;;4.60;;
36593;SDS011;22603;47.900;8.146;2024-01-25T16:07:37;61.97;;;4.30;;
36593;SDS011;22603;47.900;8.146;2024-01-25T16:10:33;14.73;;;1.53;;
36593;SDS011;22603;47.900;8.146;2024-01-25T16:13:19;2.83;;;1.00;;
36593;SDS011;22603;47.900;8.146;2024-01-25T16:16:08;7.67;;;1.33;;
36593;SDS011;22603;47.900;8.146;2024-01-25T16:18:55;2.40;;;1.10;;
36593;SDS011;22603;47.900;8.146;2024-01-25T16:21:42;4.80;;;1.23;;
36593;SDS011;22603;47.900;8.146;2024-01-25T16:24:29;15.67;;;1.67;;
36593;SDS011;22603;47.900;8.146;2024-01-25T16:27:16;22.43;;;2.10;;
36593;SDS011;22603;47.900;8.146;2024-01-25T16:30:05;26.17;;;2.73;;
36593;SDS011;22603;47.900;8.146;2024-01-25T16:32:52;75.87;;;4.10;;
36593;SDS011;22603;47.900;8.146;2024-01-25T16:35:42;13.50;;;1.60;;
36593;SDS011;22603;47.900;8.146;2024-01-25T16:38:29;29.87;;;2.50;;
36593;SDS011;22603;47.900;8.146;2024-01-25T16:41:17;37.23;;;3.33;;
36593;SDS011;22603;47.900;8.146;2024-01-25T16:44:04;8.50;;;2.23;;
36593;SDS011;22603;47.900;8.146;2024-01-25T16:46:51;5.00;;;1.60;;
36593;SDS011;22603;47.900;8.146;2024-01-25T16:49:37;4.50;;;1.67;;